createdAt,value
2022-08-21T00:09:31.030Z,72.59
2022-08-21T00:19:33.254Z,73.01
2022-08-21T00:29:34.752Z,74.13
2022-08-21T00:39:36.253Z,73.52
2022-08-21T00:49:39.056Z,73.44
2022-08-21T00:59:41.595Z,74.32
2022-08-21T01:09:44.310Z,74.12
2022-08-21T01:19:45.814Z,75.49
2022-08-21T01:29:57.516Z,76.60
2022-08-21T01:39:59.276Z,77.02
2022-08-21T01:50:00.963Z,76.82
2022-08-21T02:00:05.047Z,76.13
2022-08-21T02:10:16.952Z,76.00
2022-08-21T02:20:28.260Z,76.41
2022-08-21T02:30:38.878Z,75.76
2022-08-21T02:40:43.877Z,76.34
2022-08-21T02:50:56.800Z,76.11
2022-08-21T03:00:59.317Z,75.87
2022-08-21T03:11:01.976Z,76.01
2022-08-21T03:21:03.706Z,76.16
2022-08-21T03:31:06.591Z,76.22
2022-08-21T03:41:08.889Z,77.29
2022-08-21T03:51:10.392Z,77.76
2022-08-21T04:01:12.049Z,78.05
2022-08-21T04:11:13.989Z,77.30
2022-08-21T04:21:15.502Z,77.55
2022-08-21T04:31:18.347Z,77.45
2022-08-21T04:41:27.846Z,77.38
2022-08-21T04:51:34.737Z,77.05
2022-08-21T05:01:38.754Z,76.98
2022-08-21T05:11:40.948Z,77.15
2022-08-21T05:21:44.952Z,77.03
2022-08-21T05:31:47.701Z,76.76
2022-08-21T05:41:50.180Z,76.01
2022-08-21T05:51:51.675Z,74.49
2022-08-21T06:01:53.685Z,70.87
2022-08-21T06:11:55.286Z,67.45
2022-08-21T06:21:56.801Z,63.79
2022-08-21T06:31:58.301Z,58.32
2022-08-21T06:42:01.103Z,52.63
2022-08-21T06:52:04.084Z,50.71
2022-08-21T07:02:05.760Z,48.25
2022-08-21T07:12:07.632Z,45.29
2022-08-21T07:22:09.238Z,43.90
2022-08-21T07:32:10.769Z,44.18
2022-08-21T07:42:12.331Z,44.63
2022-08-21T07:52:13.826Z,44.93
2022-08-21T08:02:30.416Z,46.78
2022-08-21T08:12:31.937Z,45.29
2022-08-21T08:22:35.665Z,45.17
2022-08-21T08:32:46.993Z,44.27
2022-08-21T08:42:48.581Z,39.76
2022-08-21T08:52:55.760Z,34.12
2022-08-21T09:03:00.799Z,29.22
2022-08-21T09:13:24.106Z,29.22
2022-08-21T09:24:03.135Z,22.85
2022-08-21T09:34:09.169Z,17.27
2022-08-21T09:44:10.721Z,15.04
2022-08-21T09:54:18.346Z,15.01
2022-08-21T10:04:28.944Z,16.13
2022-08-21T10:14:54.541Z,14.35
2022-08-21T10:25:31.752Z,19.99
2022-08-21T10:35:43.767Z,15.55
2022-08-21T10:46:09.678Z,14.99
2022-08-21T10:56:24.477Z,13.62
2022-08-21T11:06:31.085Z,17.23
2022-08-21T11:16:38.811Z,24.48
2022-08-21T11:27:05.962Z,27.65
2022-08-21T11:37:14.766Z,29.10
2022-08-21T11:47:26.651Z,29.91
2022-08-21T11:57:51.861Z,32.96
2022-08-21T12:08:15.182Z,32.70
2022-08-21T12:18:30.063Z,33.01
2022-08-21T12:28:32.385Z,35.05
2022-08-21T12:38:46.925Z,34.22
2022-08-21T12:48:57.535Z,31.92
2022-08-21T12:59:08.829Z,31.07
2022-08-21T13:09:17.202Z,31.48
2022-08-21T13:19:23.879Z,29.48
2022-08-21T13:29:32.052Z,26.17
2022-08-21T13:39:34.082Z,24.52
2022-08-21T13:49:43.467Z,24.17
2022-08-21T13:59:45.383Z,25.42
2022-08-21T14:09:47.785Z,28.21
2022-08-21T14:19:49.470Z,31.23
2022-08-21T14:29:50.941Z,28.07
2022-08-21T14:39:52.438Z,27.60
2022-08-21T14:49:54.943Z,28.18
2022-08-21T15:00:01.228Z,26.44
2022-08-21T15:10:03.907Z,25.03
2022-08-21T15:20:06.899Z,25.33
2022-08-21T15:30:08.911Z,27.00
2022-08-21T15:40:11.220Z,27.29
2022-08-21T15:50:14.286Z,27.23
2022-08-21T16:00:24.051Z,28.22
2022-08-21T16:10:29.779Z,27.75
2022-08-21T16:20:32.694Z,27.59
2022-08-21T16:30:35.013Z,28.54
2022-08-21T16:40:36.670Z,29.10
2022-08-21T16:50:38.433Z,29.44
2022-08-21T17:00:39.955Z,30.08
2022-08-21T17:10:47.926Z,30.79
2022-08-21T17:20:50.600Z,31.79
2022-08-21T17:30:57.574Z,32.53
2022-08-21T17:41:00.607Z,33.13
2022-08-21T17:51:02.338Z,33.94
2022-08-21T18:01:05.700Z,34.76
2022-08-21T18:11:07.597Z,35.57
2022-08-21T18:21:12.506Z,37.00
2022-08-21T18:31:14.250Z,37.72
2022-08-21T18:41:16.338Z,38.98
2022-08-21T18:51:17.842Z,39.74
2022-08-21T19:01:20.901Z,41.62
2022-08-21T19:11:25.049Z,43.44
2022-08-21T19:21:27.075Z,44.96
2022-08-21T19:31:32.477Z,47.68
2022-08-21T19:41:36.958Z,48.63
2022-08-21T19:51:38.677Z,48.53
2022-08-21T20:01:40.301Z,50.26
2022-08-21T20:11:48.851Z,52.56
2022-08-21T20:21:50.346Z,53.81
2022-08-21T20:31:52.007Z,55.09
2022-08-21T20:41:54.563Z,56.31
2022-08-21T20:51:58.645Z,57.19
2022-08-21T21:02:24.337Z,58.15
2022-08-21T21:12:34.920Z,58.93
2022-08-21T21:22:45.460Z,59.21
2022-08-21T21:32:47.781Z,60.07
2022-08-21T21:42:52.003Z,60.49
2022-08-21T21:53:12.389Z,61.14
2022-08-21T22:03:29.182Z,62.20
2022-08-21T22:13:56.053Z,62.18
2022-08-21T22:24:04.129Z,64.15
2022-08-21T22:34:19.413Z,64.39
2022-08-21T22:44:27.222Z,65.82
2022-08-21T22:54:35.442Z,64.77
2022-08-21T23:04:46.854Z,64.07
2022-08-21T23:14:54.748Z,64.05
2022-08-21T23:25:44.536Z,64.65
2022-08-21T23:36:21.486Z,65.30
2022-08-21T23:46:52.521Z,64.81
2022-08-21T23:57:26.642Z,63.73
